Time;durP1;ratioP1;P1;durP2;ratioP2;P2;SDS_P1;SDS_P2;PMS_P1;PMS_P2;Temp;Humidity;BMP_temperature;BMP_pressure;BME280_temperature;BME280_humidity;BME280_pressure;Samples;Min_cycle;Max_cycle;Signal;HPM_P1;HPM_P2
2024/04/11 00:00:53;;;;;;;6.45;1.80;;;;;;;;;;5368404;26;20000;-69
2024/04/11 00:03:20;;;;;;;6.60;1.33;;;;;;;;;;5378113;26;20015;-69
2024/04/11 00:05:47;;;;;;;5.68;1.75;;;;;;;;;;5396787;26;20016;-69
2024/04/11 00:08:14;;;;;;;7.35;1.77;;;;;;;;;;5398557;26;20068;-69
2024/04/11 00:10:40;;;;;;;10.55;1.50;;;;;;;;;;5385568;26;20001;-69
2024/04/11 00:13:07;;;;;;;6.07;1.50;;;;;;;;;;5384293;26;19999;-69
2024/04/11 00:15:33;;;;;;;6.38;1.80;;;;;;;;;;5374179;26;20014;-69
2024/04/11 00:18:00;;;;;;;6.78;1.60;;;;;;;;;;5370808;26;20015;-69
2024/04/11 00:20:26;;;;;;;6.88;1.55;;;;;;;;;;5369841;26;20094;-69
2024/04/11 00:22:53;;;;;;;7.28;1.38;;;;;;;;;;5396912;26;20003;-70
2024/04/11 00:25:19;;;;;;;6.65;1.92;;;;;;;;;;5388990;26;19999;-69
2024/04/11 00:27:46;;;;;;;12.85;2.25;;;;;;;;;;5412400;26;20026;-69
2024/04/11 00:30:12;;;;;;;7.72;1.15;;;;;;;;;;5428266;26;20292;-69
2024/04/11 00:32:39;;;;;;;8.20;1.30;;;;;;;;;;5433219;26;20017;-69
2024/04/11 00:35:06;;;;;;;6.55;1.70;;;;;;;;;;5416471;26;20003;-69
2024/04/11 00:37:32;;;;;;;4.97;1.20;;;;;;;;;;5437095;26;20003;-69
2024/04/11 00:39:59;;;;;;;8.43;1.60;;;;;;;;;;5399185;26;20484;-70
2024/04/11 00:42:25;;;;;;;5.20;1.20;;;;;;;;;;5402767;26;20691;-70
2024/04/11 00:44:52;;;;;;;4.35;1.15;;;;;;;;;;5407643;26;20002;-69
2024/04/11 00:47:20;;;;;;;5.63;1.25;;;;;;;;;;5445132;26;20042;-69
2024/04/11 00:49:47;;;;;;;6.65;1.30;;;;;;;;;;5398145;26;20854;-69
2024/04/11 00:52:13;;;;;;;5.30;1.48;;;;;;;;;;5440062;26;20013;-69
2024/04/11 00:54:40;;;;;;;6.38;1.45;;;;;;;;;;5423592;26;20515;-69
2024/04/11 00:57:08;;;;;;;6.78;1.30;;;;;;;;;;5390250;26;20003;-69
2024/04/11 00:59:37;;;;;;;7.07;1.70;;;;;;;;;;5406131;26;20005;-69
2024/04/11 01:02:04;;;;;;;;;;;;;;;;;;5431582;26;20003;-69
2024/04/11 01:04:33;;;;;;;7.00;1.95;;;;;;;;;;5416283;26;19924;-69
2024/04/11 01:07:17;;;;;;;;;;;;;;;;;;5412431;26;20007;-70
2024/04/11 01:09:45;;;;;;;8.73;1.73;;;;;;;;;;5410568;26;19924;-69
2024/04/11 01:12:12;;;;;;;4.20;1.20;;;;;;;;;;5388872;26;20055;-69
2024/04/11 01:14:43;;;;;;;6.60;1.60;;;;;;;;;;5420778;26;20050;-69
2024/04/11 01:17:13;;;;;;;10.43;1.35;;;;;;;;;;5416867;26;19998;-69
2024/04/11 01:19:41;;;;;;;8.23;1.27;;;;;;;;;;5410139;26;20006;-69
2024/04/11 01:22:10;;;;;;;6.10;1.23;;;;;;;;;;5428641;26;20014;-71
2024/04/11 01:24:39;;;;;;;9.13;1.75;;;;;;;;;;5430637;26;20010;-70
2024/04/11 01:27:07;;;;;;;4.72;1.05;;;;;;;;;;5370516;26;19999;-69
2024/04/11 01:29:38;;;;;;;5.40;1.48;;;;;;;;;;5422727;26;20050;-69
2024/04/11 01:32:06;;;;;;;6.00;1.30;;;;;;;;;;5410010;26;20011;-70
2024/04/11 01:34:32;;;;;;;5.15;1.27;;;;;;;;;;5413203;26;20014;-69
2024/04/11 01:36:59;;;;;;;6.20;1.30;;;;;;;;;;5400106;26;20011;-69
2024/04/11 01:39:26;;;;;;;4.30;1.25;;;;;;;;;;5389004;26;20904;-69
2024/04/11 01:41:53;;;;;;;4.25;1.40;;;;;;;;;;5409020;26;20002;-70
2024/04/11 01:44:20;;;;;;;8.05;1.60;;;;;;;;;;5425147;26;19999;-70
2024/04/11 01:46:48;;;;;;;9.98;1.70;;;;;;;;;;5438044;26;20008;-69
2024/04/11 01:49:18;;;;;;;5.82;1.48;;;;;;;;;;5408414;26;20000;-70
2024/04/11 01:51:44;;;;;;;13.60;1.60;;;;;;;;;;5388363;26;20023;-69
2024/04/11 01:54:12;;;;;;;6.35;1.38;;;;;;;;;;5436623;26;19998;-69
2024/04/11 01:56:39;;;;;;;5.13;1.30;;;;;;;;;;5396091;26;19995;-70
2024/04/11 01:59:06;;;;;;;6.00;1.48;;;;;;;;;;5411356;26;20081;-69
2024/04/11 02:01:36;;;;;;;5.95;1.52;;;;;;;;;;5436314;26;20018;-70
2024/04/11 02:04:05;;;;;;;10.88;1.95;;;;;;;;;;5409437;26;20000;-69
2024/04/11 02:06:34;;;;;;;7.88;1.52;;;;;;;;;;5413798;26;20007;-69
2024/04/11 02:09:05;;;;;;;4.50;1.13;;;;;;;;;;5409391;26;20004;-69
2024/04/11 02:11:33;;;;;;;8.45;1.65;;;;;;;;;;5408890;26;20015;-70
2024/04/11 02:14:00;;;;;;;5.05;1.40;;;;;;;;;;5399900;26;20004;-70
2024/04/11 02:16:34;;;;;;;8.73;1.50;;;;;;;;;;5413259;26;20589;-69
2024/04/11 02:19:06;;;;;;;6.05;2.20;;;;;;;;;;5404523;26;20004;-69
2024/04/11 02:21:34;;;;;;;7.43;1.58;;;;;;;;;;5407356;26;19999;-70
2024/04/11 02:24:06;;;;;;;8.02;1.67;;;;;;;;;;5414548;26;20005;-69
2024/04/11 02:26:36;;;;;;;7.35;1.70;;;;;;;;;;5411546;26;20018;-71
2024/04/11 02:29:03;;;;;;;4.78;1.25;;;;;;;;;;5412317;26;20097;-69
2024/04/11 02:31:33;;;;;;;9.90;1.30;;;;;;;;;;5429960;26;20331;-69
2024/04/11 02:34:00;;;;;;;6.30;1.42;;;;;;;;;;5426385;26;20022;-70
2024/04/11 02:36:30;;;;;;;4.00;1.20;;;;;;;;;;5413890;26;20009;-69
2024/04/11 02:38:57;;;;;;;4.80;1.58;;;;;;;;;;5455149;26;19995;-69
2024/04/11 02:41:24;;;;;;;5.47;1.20;;;;;;;;;;5444045;26;21008;-70
2024/04/11 02:43:51;;;;;;;6.22;1.50;;;;;;;;;;5420624;26;20009;-70
2024/04/11 02:46:18;;;;;;;4.13;1.30;;;;;;;;;;5452079;26;20013;-70
2024/04/11 02:48:45;;;;;;;6.18;1.40;;;;;;;;;;5447702;26;20013;-69
2024/04/11 02:51:13;;;;;;;4.10;1.50;;;;;;;;;;5408072;26;20011;-69
2024/04/11 02:53:39;;;;;;;10.60;1.67;;;;;;;;;;5459679;26;20003;-69
2024/04/11 02:56:09;;;;;;;4.80;1.30;;;;;;;;;;5440610;26;20532;-69
2024/04/11 02:58:37;;;;;;;6.18;1.33;;;;;;;;;;5462949;26;21319;-69
2024/04/11 03:01:06;;;;;;;5.55;1.55;;;;;;;;;;5452110;26;20040;-69
2024/04/11 03:03:34;;;;;;;6.78;1.70;;;;;;;;;;5406265;26;20003;-69
2024/04/11 03:06:05;;;;;;;7.50;1.60;;;;;;;;;;5460861;26;19999;-69
2024/04/11 03:08:33;;;;;;;9.95;1.50;;;;;;;;;;5467898;26;20010;-69
2024/04/11 03:11:02;;;;;;;3.30;1.50;;;;;;;;;;5453708;26;20014;-69
2024/04/11 03:13:29;;;;;;;6.00;1.30;;;;;;;;;;5456790;26;20009;-69
2024/04/11 03:15:59;;;;;;;7.18;1.80;;;;;;;;;;5444279;26;20013;-69
2024/04/11 03:18:29;;;;;;;6.40;1.40;;;;;;;;;;5451292;26;19995;-69
2024/04/11 03:21:00;;;;;;;6.60;1.60;;;;;;;;;;5436444;26;20114;-69
2024/04/11 03:23:27;;;;;;;5.38;1.60;;;;;;;;;;5450848;26;20013;-69
2024/04/11 03:25:55;;;;;;;6.43;1.70;;;;;;;;;;5433913;26;20027;-69
2024/04/11 03:28:22;;;;;;;10.68;1.75;;;;;;;;;;5465938;26;20054;-69
2024/04/11 03:30:55;;;;;;;7.00;1.80;;;;;;;;;;5448117;26;20068;-70
2024/04/11 03:33:22;;;;;;;6.60;1.80;;;;;;;;;;5459890;26;19998;-69
2024/04/11 03:35:52;;;;;;;6.53;1.52;;;;;;;;;;5441964;26;20013;-69
2024/04/11 03:38:19;;;;;;;3.63;1.30;;;;;;;;;;5449358;26;20006;-69
2024/04/11 03:40:58;;;;;;;7.70;1.60;;;;;;;;;;5473756;26;20342;-70
2024/04/11 03:43:27;;;;;;;6.50;1.42;;;;;;;;;;5461086;26;20010;-69
2024/04/11 03:46:18;;;;;;;5.60;1.35;;;;;;;;;;5436107;26;20482;-70
2024/04/11 03:48:46;;;;;;;11.43;2.17;;;;;;;;;;5436190;26;19998;-70
2024/04/11 03:51:14;;;;;;;9.48;1.63;;;;;;;;;;5432933;26;20965;-69
2024/04/11 03:53:41;;;;;;;8.35;1.63;;;;;;;;;;5446257;26;20074;-69
2024/04/11 03:56:08;;;;;;;6.40;1.35;;;;;;;;;;5426565;26;20013;-70
2024/04/11 03:58:37;;;;;;;6.70;1.50;;;;;;;;;;5452204;26;19998;-70
2024/04/11 04:01:12;;;;;;;7.30;1.30;;;;;;;;;;5432463;26;20010;-70
2024/04/11 04:03:42;;;;;;;8.95;1.48;;;;;;;;;;5455036;26;19998;-69
2024/04/11 04:06:10;;;;;;;10.50;1.67;;;;;;;;;;5444910;26;20026;-70
2024/04/11 04:08:38;;;;;;;5.32;1.42;;;;;;;;;;5427217;26;20002;-69
2024/04/11 04:11:05;;;;;;;4.45;1.40;;;;;;;;;;5443386;26;19999;-69
2024/04/11 04:13:33;;;;;;;6.07;1.60;;;;;;;;;;5439016;26;20359;-69
2024/04/11 04:16:01;;;;;;;8.10;1.60;;;;;;;;;;5442112;26;20006;-69
2024/04/11 04:18:27;;;;;;;4.63;1.35;;;;;;;;;;5478391;26;20006;-70
2024/04/11 04:20:57;;;;;;;10.43;1.52;;;;;;;;;;5412759;26;19998;-70
2024/04/11 04:23:24;;;;;;;5.22;1.20;;;;;;;;;;5466430;26;20078;-70
2024/04/11 04:25:59;;;;;;;8.77;1.65;;;;;;;;;;5429611;26;20006;-69
2024/04/11 04:28:30;;;;;;;10.93;1.85;;;;;;;;;;5435942;26;20014;-70
2024/04/11 04:31:12;;;;;;;4.55;1.30;;;;;;;;;;5408711;26;20013;-70
2024/04/11 04:33:39;;;;;;;8.30;1.40;;;;;;;;;;5461016;26;20017;-70
2024/04/11 04:36:06;;;;;;;6.13;1.30;;;;;;;;;;5458830;26;20009;-70
2024/04/11 04:38:34;;;;;;;6.72;1.45;;;;;;;;;;5459043;26;20079;-70
2024/04/11 04:41:01;;;;;;;6.20;1.40;;;;;;;;;;5470956;26;20728;-70
2024/04/11 04:43:30;;;;;;;6.53;1.50;;;;;;;;;;5453702;26;20018;-69
2024/04/11 04:46:00;;;;;;;6.85;1.40;;;;;;;;;;5457297;26;20050;-69
2024/04/11 04:48:27;;;;;;;6.97;1.58;;;;;;;;;;5457178;26;20726;-69
2024/04/11 04:50:54;;;;;;;6.47;1.30;;;;;;;;;;5406227;26;20390;-70
2024/04/11 04:53:20;;;;;;;7.15;1.17;;;;;;;;;;5449573;26;19998;-70
2024/04/11 04:55:47;;;;;;;4.65;1.70;;;;;;;;;;5427667;26;20006;-70
2024/04/11 04:58:15;;;;;;;5.68;1.30;;;;;;;;;;5461236;26;20557;-69
2024/04/11 05:00:42;;;;;;;6.87;1.60;;;;;;;;;;5438296;26;20324;-69
2024/04/11 05:03:10;;;;;;;7.43;1.67;;;;;;;;;;5454042;26;20010;-70
2024/04/11 05:05:37;;;;;;;6.40;1.50;;;;;;;;;;5472580;26;20002;-70
2024/04/11 05:08:07;;;;;;;6.03;1.40;;;;;;;;;;5430226;26;20014;-70
2024/04/11 05:10:34;;;;;;;5.40;1.73;;;;;;;;;;5419041;26;20440;-70
2024/04/11 05:13:01;;;;;;;8.25;1.20;;;;;;;;;;5457288;26;20521;-70
2024/04/11 05:15:28;;;;;;;9.95;1.50;;;;;;;;;;5438715;26;20017;-69
2024/04/11 05:17:55;;;;;;;4.30;1.42;;;;;;;;;;5470582;26;20013;-71
2024/04/11 05:20:27;;;;;;;9.45;1.63;;;;;;;;;;5441129;26;20006;-70
2024/04/11 05:22:56;;;;;;;6.63;1.50;;;;;;;;;;5448802;26;19998;-69
2024/04/11 05:25:23;;;;;;;7.97;1.80;;;;;;;;;;5435827;26;20034;-70
2024/04/11 05:27:50;;;;;;;11.85;1.60;;;;;;;;;;5441215;26;20323;-70
2024/04/11 05:30:19;;;;;;;5.68;1.35;;;;;;;;;;5480009;26;20364;-69
2024/04/11 05:32:49;;;;;;;7.65;1.55;;;;;;;;;;5422445;26;20546;-70
2024/04/11 05:35:16;;;;;;;9.63;2.10;;;;;;;;;;5447568;26;20202;-70
2024/04/11 05:37:45;;;;;;;4.38;1.20;;;;;;;;;;5445622;26;20009;-70
2024/04/11 05:40:15;;;;;;;6.30;1.50;;;;;;;;;;5409722;26;20006;-70
2024/04/11 05:42:45;;;;;;;6.35;1.80;;;;;;;;;;5450340;26;20014;-69
2024/04/11 05:45:12;;;;;;;7.60;1.92;;;;;;;;;;5451451;26;19998;-70
2024/04/11 05:47:38;;;;;;;8.40;1.80;;;;;;;;;;5458738;26;20459;-70
2024/04/11 05:50:06;;;;;;;7.25;1.50;;;;;;;;;;5430403;26;19998;-70
2024/04/11 05:52:33;;;;;;;10.73;1.63;;;;;;;;;;5420094;26;20756;-72
2024/04/11 05:55:02;;;;;;;8.95;1.60;;;;;;;;;;5423219;26;20002;-72
2024/04/11 05:57:29;;;;;;;10.38;2.00;;;;;;;;;;5416050;26;20003;-72
2024/04/11 05:59:56;;;;;;;5.80;1.52;;;;;;;;;;5465243;26;20442;-72
2024/04/11 06:02:22;;;;;;;7.38;1.33;;;;;;;;;;5426690;26;20002;-72
2024/04/11 06:04:50;;;;;;;5.53;1.30;;;;;;;;;;5464483;26;20465;-72
2024/04/11 06:07:17;;;;;;;7.68;1.50;;;;;;;;;;5451115;26;20018;-71
2024/04/11 06:09:44;;;;;;;7.63;1.90;;;;;;;;;;5444671;26;19995;-71
2024/04/11 06:12:11;;;;;;;6.07;1.50;;;;;;;;;;5449186;26;20610;-71
2024/04/11 06:14:38;;;;;;;6.30;1.65;;;;;;;;;;5454814;26;20045;-71
2024/04/11 06:17:04;;;;;;;8.57;1.75;;;;;;;;;;5456114;26;20593;-69
2024/04/11 06:19:32;;;;;;;5.65;1.75;;;;;;;;;;5430938;26;20007;-70
2024/04/11 06:21:59;;;;;;;9.07;1.70;;;;;;;;;;5437204;26;20039;-71
2024/04/11 06:24:26;;;;;;;8.27;1.55;;;;;;;;;;5463176;26;20009;-70
2024/04/11 06:26:53;;;;;;;5.47;1.85;;;;;;;;;;5456180;26;19998;-72
2024/04/11 06:29:22;;;;;;;5.15;1.70;;;;;;;;;;5431318;26;20031;-72
2024/04/11 06:31:49;;;;;;;6.25;1.45;;;;;;;;;;5430461;26;20030;-72
2024/04/11 06:34:15;;;;;;;6.00;1.40;;;;;;;;;;5445925;26;20026;-72
2024/04/11 06:36:47;;;;;;;7.75;2.22;;;;;;;;;;5432860;26;20764;-72
2024/04/11 06:39:16;;;;;;;7.68;2.00;;;;;;;;;;5474402;26;20003;-72
2024/04/11 06:41:43;;;;;;;5.88;1.55;;;;;;;;;;5460456;26;19998;-72
2024/04/11 06:44:10;;;;;;;9.63;1.92;;;;;;;;;;5460090;26;20046;-72
2024/04/11 06:46:37;;;;;;;8.98;1.60;;;;;;;;;;5455774;26;20009;-72
2024/04/11 06:49:03;;;;;;;4.80;1.50;;;;;;;;;;5461375;26;20018;-74
2024/04/11 06:51:34;;;;;;;8.27;1.90;;;;;;;;;;5472748;26;20482;-72
2024/04/11 06:54:04;;;;;;;5.70;1.92;;;;;;;;;;5440265;26;20002;-71
2024/04/11 06:56:30;;;;;;;9.82;1.60;;;;;;;;;;5443931;26;20354;-73
2024/04/11 06:58:57;;;;;;;5.70;1.60;;;;;;;;;;5439195;26;20034;-72
2024/04/11 07:01:26;;;;;;;4.82;1.40;;;;;;;;;;5439742;26;19998;-73
2024/04/11 07:03:53;;;;;;;5.50;1.65;;;;;;;;;;5464550;26;20040;-71
2024/04/11 07:06:23;;;;;;;9.90;2.40;;;;;;;;;;5456811;26;20515;-71
2024/04/11 07:08:52;;;;;;;8.65;1.90;;;;;;;;;;5470271;26;19999;-72
2024/04/11 07:11:19;;;;;;;6.32;1.80;;;;;;;;;;5447559;26;20010;-71
2024/04/11 07:13:48;;;;;;;8.43;2.10;;;;;;;;;;5439173;26;19998;-71
2024/04/11 07:16:16;;;;;;;8.40;1.83;;;;;;;;;;5433861;26;19999;-71
2024/04/11 07:18:44;;;;;;;12.27;1.90;;;;;;;;;;5433170;26;20056;-71
2024/04/11 07:21:13;;;;;;;7.63;2.05;;;;;;;;;;5448722;26;20079;-71
2024/04/11 07:23:42;;;;;;;6.13;1.58;;;;;;;;;;5472784;26;19994;-71
2024/04/11 07:26:12;;;;;;;8.45;2.80;;;;;;;;;;5450424;26;20056;-71
2024/04/11 07:28:40;;;;;;;8.80;2.10;;;;;;;;;;5437055;26;19999;-71
2024/04/11 07:31:08;;;;;;;5.20;1.52;;;;;;;;;;5469315;26;20454;-72
2024/04/11 07:33:35;;;;;;;7.90;1.80;;;;;;;;;;5467385;26;19998;-72
2024/04/11 07:36:03;;;;;;;10.70;2.25;;;;;;;;;;5469505;26;20079;-72
2024/04/11 07:38:30;;;;;;;6.82;1.77;;;;;;;;;;5468373;26;20022;-71
2024/04/11 07:40:59;;;;;;;9.38;2.13;;;;;;;;;;5456732;26;20002;-71
2024/04/11 07:43:28;;;;;;;7.30;2.15;;;;;;;;;;5447377;26;20010;-71
2024/04/11 07:45:55;;;;;;;7.30;1.77;;;;;;;;;;5458969;26;20003;-71
2024/04/11 07:48:23;;;;;;;8.02;2.47;;;;;;;;;;5454825;26;19999;-72
2024/04/11 07:50:50;;;;;;;8.23;1.85;;;;;;;;;;5413384;26;20014;-72
2024/04/11 07:53:18;;;;;;;6.75;2.40;;;;;;;;;;5458723;26;20018;-72
2024/04/11 07:55:46;;;;;;;6.05;1.85;;;;;;;;;;5416757;26;20002;-73
2024/04/11 07:58:18;;;;;;;9.57;2.40;;;;;;;;;;5471853;26;20655;-72
2024/04/11 08:00:47;;;;;;;11.70;2.83;;;;;;;;;;5465969;26;19998;-71
2024/04/11 08:03:16;;;;;;;10.30;2.95;;;;;;;;;;5443911;26;20013;-72
2024/04/11 08:05:47;;;;;;;11.13;2.85;;;;;;;;;;5440594;26;20014;-71
2024/04/11 08:08:15;;;;;;;4.43;1.67;;;;;;;;;;5449118;26;19995;-71
2024/04/11 08:10:45;;;;;;;8.63;2.10;;;;;;;;;;5424267;26;20017;-74
2024/04/11 08:13:13;;;;;;;6.57;1.95;;;;;;;;;;5412483;26;20037;-72
2024/04/11 08:15:40;;;;;;;;;;;;;;;;;;5439499;26;20448;-71
2024/04/11 08:18:06;;;;;;;8.50;2.10;;;;;;;;;;5462445;26;19924;-72
2024/04/11 08:20:34;;;;;;;6.78;2.20;;;;;;;;;;5436124;26;20498;-72
2024/04/11 08:23:01;;;;;;;7.45;2.33;;;;;;;;;;5466486;26;20002;-71
2024/04/11 08:25:37;;;;;;;9.73;2.85;;;;;;;;;;5466989;26;19998;-71
2024/04/11 08:28:04;;;;;;;7.03;2.28;;;;;;;;;;5477123;26;19998;-71
2024/04/11 08:30:30;;;;;;;9.20;2.45;;;;;;;;;;5426319;26;19998;-72
2024/04/11 08:32:59;;;;;;;9.70;2.22;;;;;;;;;;5441640;26;20685;-71
2024/04/11 08:35:26;;;;;;;11.70;2.28;;;;;;;;;;5455249;26;20006;-72
2024/04/11 08:37:53;;;;;;;7.55;2.35;;;;;;;;;;5455438;26;19998;-71
2024/04/11 08:40:19;;;;;;;12.13;2.75;;;;;;;;;;5461788;26;19995;-72
2024/04/11 08:42:47;;;;;;;7.03;2.72;;;;;;;;;;5463871;26;20014;-72
2024/04/11 08:45:14;;;;;;;6.95;2.22;;;;;;;;;;5463343;26;20577;-72
2024/04/11 08:47:40;;;;;;;7.32;2.67;;;;;;;;;;5437820;26;20328;-72
2024/04/11 08:50:07;;;;;;;5.70;2.22;;;;;;;;;;5453950;26;20016;-72
2024/04/11 08:52:36;;;;;;;8.18;2.15;;;;;;;;;;5456845;26;21028;-72
2024/04/11 08:55:03;;;;;;;5.35;2.08;;;;;;;;;;5468412;26;20070;-74
2024/04/11 08:57:29;;;;;;;6.13;2.45;;;;;;;;;;5450762;26;20010;-72
2024/04/11 08:59:56;;;;;;;8.32;2.58;;;;;;;;;;5454944;26;20765;-73
2024/04/11 09:02:23;;;;;;;9.50;2.70;;;;;;;;;;5440515;26;20006;-72
2024/04/11 09:04:50;;;;;;;8.70;1.95;;;;;;;;;;5452023;26;19994;-73
2024/04/11 09:07:32;;;;;;;4.90;2.42;;;;;;;;;;5464914;26;20485;-73
2024/04/11 09:10:05;;;;;;;5.63;2.20;;;;;;;;;;5468056;26;20005;-72
2024/04/11 09:12:31;;;;;;;7.50;2.80;;;;;;;;;;5436298;26;20301;-72
2024/04/11 09:14:58;;;;;;;10.25;3.20;;;;;;;;;;5465038;26;20010;-72
2024/04/11 09:17:24;;;;;;;7.57;2.35;;;;;;;;;;5459842;26;20021;-71
2024/04/11 09:20:00;;;;;;;9.43;2.72;;;;;;;;;;5455697;26;20010;-72
2024/04/11 09:22:28;;;;;;;10.68;2.88;;;;;;;;;;5455927;26;20003;-72
2024/04/11 09:24:54;;;;;;;8.37;2.67;;;;;;;;;;5464135;26;20013;-71
2024/04/11 09:27:22;;;;;;;12.57;2.85;;;;;;;;;;5444367;26;20079;-72
2024/04/11 09:29:52;;;;;;;9.50;2.88;;;;;;;;;;5432968;26;20526;-73
2024/04/11 09:32:21;;;;;;;8.02;2.78;;;;;;;;;;5440167;26;20068;-72
2024/04/11 09:34:50;;;;;;;9.13;2.67;;;;;;;;;;5448902;26;20005;-72
2024/04/11 09:37:23;;;;;;;9.90;3.35;;;;;;;;;;5449637;26;20353;-72
2024/04/11 09:39:52;;;;;;;9.65;3.20;;;;;;;;;;5452487;26;20011;-72
2024/04/11 09:42:19;;;;;;;7.22;2.80;;;;;;;;;;5432904;26;20014;-72
2024/04/11 09:44:52;;;;;;;6.30;2.90;;;;;;;;;;5459408;26;20013;-72
2024/04/11 09:47:26;;;;;;;8.63;3.20;;;;;;;;;;5435517;26;20010;-71
2024/04/11 09:49:59;;;;;;;11.02;3.53;;;;;;;;;;5470227;26;20363;-72
2024/04/11 09:52:27;;;;;;;6.45;3.00;;;;;;;;;;5451806;26;19994;-72
2024/04/11 09:55:02;;;;;;;11.20;3.92;;;;;;;;;;5458916;26;20007;-72
2024/04/11 09:57:29;;;;;;;10.15;3.33;;;;;;;;;;5467664;26;19995;-72
2024/04/11 09:59:56;;;;;;;11.35;4.00;;;;;;;;;;5399248;26;20003;-72
2024/04/11 10:02:26;;;;;;;8.77;3.70;;;;;;;;;;5433830;26;20514;-73
2024/04/11 10:04:57;;;;;;;7.72;3.67;;;;;;;;;;5415635;26;20048;-72
2024/04/11 10:07:33;;;;;;;11.20;4.28;;;;;;;;;;5464805;26;20010;-72
2024/04/11 10:10:06;;;;;;;10.10;4.15;;;;;;;;;;5463382;26;20014;-72
2024/04/11 10:12:43;;;;;;;10.65;3.92;;;;;;;;;;5463950;26;20003;-71
2024/04/11 10:15:18;;;;;;;8.65;3.83;;;;;;;;;;5436304;26;19999;-73
2024/04/11 10:17:48;;;;;;;13.27;5.25;;;;;;;;;;5433823;26;20020;-72
2024/04/11 10:20:20;;;;;;;10.20;4.97;;;;;;;;;;5476348;26;20002;-73
2024/04/11 10:22:47;;;;;;;13.75;5.38;;;;;;;;;;5422959;26;20027;-72
2024/04/11 10:25:17;;;;;;;14.07;5.75;;;;;;;;;;5411227;26;20727;-71
2024/04/11 10:27:47;;;;;;;11.38;5.05;;;;;;;;;;5474606;26;20030;-72
2024/04/11 10:30:17;;;;;;;12.35;5.90;;;;;;;;;;5395604;26;20021;-72
2024/04/11 10:32:46;;;;;;;12.65;5.60;;;;;;;;;;5472617;26;19994;-72
2024/04/11 10:35:19;;;;;;;9.85;5.10;;;;;;;;;;5434358;26;20053;-71
2024/04/11 10:37:49;;;;;;;9.52;5.40;;;;;;;;;;5474271;26;20793;-72
2024/04/11 10:40:24;;;;;;;11.43;5.70;;;;;;;;;;5445171;26;20676;-73
2024/04/11 10:45:38;;;;;;;16.20;6.68;;;;;;;;;;5445052;26;20944;-72
2024/04/11 10:48:14;;;;;;;10.57;6.45;;;;;;;;;;5468398;26;20046;-73
2024/04/11 10:50:42;;;;;;;14.25;6.82;;;;;;;;;;5457885;26;20026;-73
2024/04/11 10:53:09;;;;;;;11.98;6.97;;;;;;;;;;5424784;26;20002;-73
2024/04/11 10:55:37;;;;;;;;;;;;;;;;;;5470275;26;19998;-73
2024/04/11 10:58:13;;;;;;;11.57;6.50;;;;;;;;;;5418048;26;19924;-73
2024/04/11 11:03:42;;;;;;;13.77;7.78;;;;;;;;;;5440039;26;20067;-72
2024/04/11 11:06:19;;;;;;;12.15;7.28;;;;;;;;;;5433815;26;20007;-72
2024/04/11 11:08:46;;;;;;;11.02;7.50;;;;;;;;;;5444845;26;20013;-72
2024/04/11 11:11:14;;;;;;;11.73;7.95;;;;;;;;;;5426022;26;20015;-70
2024/04/11 11:13:42;;;;;;;11.68;7.72;;;;;;;;;;5448228;26;19995;-71
2024/04/11 11:16:12;;;;;;;13.70;7.38;;;;;;;;;;5437399;26;20765;-71
2024/04/11 11:18:43;;;;;;;11.27;7.72;;;;;;;;;;5427794;26;20084;-70
2024/04/11 11:21:16;;;;;;;12.30;7.63;;;;;;;;;;5417643;26;20005;-69
2024/04/11 11:23:45;;;;;;;15.50;8.30;;;;;;;;;;5448087;26;20018;-70
2024/04/11 11:26:12;;;;;;;16.33;8.77;;;;;;;;;;5442798;26;20459;-71
2024/04/11 11:28:39;;;;;;;13.13;7.38;;;;;;;;;;5451116;26;20009;-70
2024/04/11 11:31:14;;;;;;;13.93;8.35;;;;;;;;;;5458808;26;20015;-69
2024/04/11 11:33:41;;;;;;;12.02;8.05;;;;;;;;;;5440696;26;20063;-70
2024/04/11 11:36:08;;;;;;;11.05;7.95;;;;;;;;;;5463020;26;20003;-70
2024/04/11 11:38:34;;;;;;;10.23;6.82;;;;;;;;;;5448021;26;20351;-71
2024/04/11 11:41:01;;;;;;;12.77;8.25;;;;;;;;;;5393440;26;20081;-70
2024/04/11 11:43:29;;;;;;;12.60;7.90;;;;;;;;;;5456425;26;20014;-69
2024/04/11 11:46:17;;;;;;;10.80;7.80;;;;;;;;;;5468669;26;20013;-69
2024/04/11 11:48:47;;;;;;;12.68;7.50;;;;;;;;;;5457958;26;20027;-68
2024/04/11 11:51:14;;;;;;;112.32;64.00;;;;;;;;;;5439976;26;20330;-72
2024/04/11 11:53:45;;;;;;;11.93;7.78;;;;;;;;;;5438864;26;19999;-68
2024/04/11 11:56:12;;;;;;;13.23;8.55;;;;;;;;;;5440921;26;20010;-69
2024/04/11 11:58:43;;;;;;;12.32;8.20;;;;;;;;;;5432529;26;20009;-70
2024/04/11 12:01:28;;;;;;;11.50;7.97;;;;;;;;;;5466730;26;20048;-68
2024/04/11 12:03:55;;;;;;;13.32;8.50;;;;;;;;;;5455956;26;20041;-68
2024/04/11 12:06:24;;;;;;;11.88;8.95;;;;;;;;;;5449584;26;20006;-69
2024/04/11 12:08:50;;;;;;;13.13;9.27;;;;;;;;;;5424840;26;20015;-69
2024/04/11 12:11:21;;;;;;;12.43;9.10;;;;;;;;;;5442690;26;20014;-69
2024/04/11 12:13:51;;;;;;;11.45;8.70;;;;;;;;;;5446300;26;20781;-69
2024/04/11 12:16:19;;;;;;;12.65;9.00;;;;;;;;;;5427255;26;19999;-70
2024/04/11 12:18:51;;;;;;;10.50;8.45;;;;;;;;;;5443002;26;20018;-69
2024/04/11 12:21:34;;;;;;;12.60;10.02;;;;;;;;;;5458451;26;20530;-68
2024/04/11 12:24:00;;;;;;;13.32;10.07;;;;;;;;;;5464842;26;19999;-69
2024/04/11 12:26:29;;;;;;;12.15;9.15;;;;;;;;;;5427051;26;20090;-68
2024/04/11 12:28:56;;;;;;;15.60;9.43;;;;;;;;;;5460992;26;20781;-69
2024/04/11 12:31:26;;;;;;;14.57;10.15;;;;;;;;;;5441967;26;20700;-68
2024/04/11 12:33:56;;;;;;;12.77;9.05;;;;;;;;;;5441206;26;20014;-70
2024/04/11 12:39:32;;;;;;;12.93;9.80;;;;;;;;;;5427662;26;20014;-70
2024/04/11 12:42:03;;;;;;;13.85;9.98;;;;;;;;;;5465382;26;20003;-70
2024/04/11 12:44:35;;;;;;;13.30;9.70;;;;;;;;;;5454523;26;20010;-71
2024/04/11 12:47:13;;;;;;;11.50;9.50;;;;;;;;;;5440662;26;20002;-68
2024/04/11 12:49:47;;;;;;;15.70;10.57;;;;;;;;;;5438561;26;21032;-69
2024/04/11 12:52:23;;;;;;;17.25;10.85;;;;;;;;;;5451089;26;20071;-69
2024/04/11 12:54:53;;;;;;;14.93;10.48;;;;;;;;;;5452832;26;20007;-69
2024/04/11 12:57:28;;;;;;;13.43;10.27;;;;;;;;;;5453237;26;20067;-70
2024/04/11 13:00:07;;;;;;;13.35;10.70;;;;;;;;;;5457440;26;20674;-70
2024/04/11 13:02:35;;;;;;;15.30;10.32;;;;;;;;;;5440690;26;20023;-69
2024/04/11 13:05:05;;;;;;;14.60;10.63;;;;;;;;;;5430400;26;19998;-69
2024/04/11 13:07:31;;;;;;;17.17;11.70;;;;;;;;;;5424607;26;20008;-69
2024/04/11 13:10:07;;;;;;;14.32;12.02;;;;;;;;;;5437202;26;20014;-69
2024/04/11 13:12:35;;;;;;;16.30;11.50;;;;;;;;;;5470162;26;20009;-70
2024/04/11 13:15:08;;;;;;;16.00;11.25;;;;;;;;;;5433293;26;20010;-69
2024/04/11 13:17:38;;;;;;;13.95;12.07;;;;;;;;;;5462604;26;20002;-70
2024/04/11 13:20:22;;;;;;;15.27;12.32;;;;;;;;;;5420657;26;20542;-70
2024/04/11 13:22:51;;;;;;;17.38;11.27;;;;;;;;;;5466928;26;20017;-70
2024/04/11 13:25:18;;;;;;;15.18;11.48;;;;;;;;;;5475517;26;20002;-69
2024/04/11 13:27:45;;;;;;;17.08;11.52;;;;;;;;;;5434668;26;20002;-70
2024/04/11 13:30:12;;;;;;;16.65;12.05;;;;;;;;;;5465046;26;20624;-70
2024/04/11 13:32:40;;;;;;;15.23;11.27;;;;;;;;;;5432482;26;20328;-70
2024/04/11 13:35:11;;;;;;;18.25;12.45;;;;;;;;;;5456265;26;20724;-69
2024/04/11 13:37:38;;;;;;;15.55;11.48;;;;;;;;;;5453280;26;20086;-70
2024/04/11 13:42:55;;;;;;;17.73;11.70;;;;;;;;;;5468519;26;20009;-70
2024/04/11 13:45:24;;;;;;;17.15;12.40;;;;;;;;;;5442159;26;20311;-70
2024/04/11 13:48:00;;;;;;;16.58;12.85;;;;;;;;;;5459442;26;20798;-70
2024/04/11 13:50:52;;;;;;;16.65;12.27;;;;;;;;;;5420732;26;20464;-70
2024/04/11 13:53:23;;;;;;;14.93;11.93;;;;;;;;;;5434930;26;20014;-70
2024/04/11 13:55:55;;;;;;;14.63;11.65;;;;;;;;;;5442921;26;20458;-70
2024/04/11 13:58:22;;;;;;;14.43;12.18;;;;;;;;;;5397118;26;20825;-69
2024/04/11 14:00:51;;;;;;;13.15;11.40;;;;;;;;;;5415574;26;20000;-69
2024/04/11 14:03:24;;;;;;;13.77;11.00;;;;;;;;;;5402363;26;20488;-69
2024/04/11 14:06:06;;;;;;;16.52;12.20;;;;;;;;;;5415313;26;20047;-69
2024/04/11 14:08:34;;;;;;;15.45;11.95;;;;;;;;;;5415744;26;20000;-69
2024/04/11 14:11:04;;;;;;;14.40;11.30;;;;;;;;;;5415610;26;20089;-70
2024/04/11 14:13:41;;;;;;;18.02;12.38;;;;;;;;;;5419595;26;20470;-69
2024/04/11 14:16:08;;;;;;;15.88;11.82;;;;;;;;;;5396949;26;20000;-68
2024/04/11 14:18:39;;;;;;;19.23;13.10;;;;;;;;;;5419258;26;20416;-69
2024/04/11 14:21:18;;;;;;;16.55;12.98;;;;;;;;;;5419969;26;20484;-68
2024/04/11 14:23:47;;;;;;;17.73;13.82;;;;;;;;;;5427267;26;20014;-70
2024/04/11 14:26:24;;;;;;;17.30;14.48;;;;;;;;;;5400454;26;20096;-69
2024/04/11 14:28:54;;;;;;;17.58;13.32;;;;;;;;;;5424746;26;20004;-69
2024/04/11 14:31:30;;;;;;;19.13;14.50;;;;;;;;;;5414482;26;20021;-70
2024/04/11 14:36:26;;;;;;;20.15;14.27;;;;;;;;;;5421336;26;20607;-70
2024/04/11 14:38:55;;;;;;;20.92;14.32;;;;;;;;;;5439477;26;20000;-70
2024/04/11 14:41:22;;;;;;;19.42;14.57;;;;;;;;;;5426947;26;20054;-70
2024/04/11 14:43:49;;;;;;;16.33;13.73;;;;;;;;;;5398371;26;20010;-70
2024/04/11 14:46:16;;;;;;;16.50;12.85;;;;;;;;;;5402965;26;20075;-69
2024/04/11 14:48:42;;;;;;;20.75;12.88;;;;;;;;;;5435597;26;20010;-68
2024/04/11 14:51:15;;;;;;;14.98;11.63;;;;;;;;;;5408171;26;20031;-69
2024/04/11 14:53:46;;;;;;;17.13;11.32;;;;;;;;;;5433274;26;20010;-69
2024/04/11 14:56:38;;;;;;;16.02;11.38;;;;;;;;;;5403235;26;20761;-69
2024/04/11 14:59:05;;;;;;;14.65;10.77;;;;;;;;;;5404138;26;20000;-70
2024/04/11 15:01:32;;;;;;;14.90;10.27;;;;;;;;;;5405043;26;20014;-71
2024/04/11 15:04:07;;;;;;;13.90;10.43;;;;;;;;;;5456699;26;20002;-70